sensor_id;sensor_type;location;lat;lon;timestamp;P1;durP1;ratioP1;P2;durP2;ratioP2
58697;SDS011;44475;53.206;-6.106;2023-04-01T00:00:57;27.38;;;3.97;;
58697;SDS011;44475;53.206;-6.106;2023-04-01T00:03:25;22.42;;;3.15;;
58697;SDS011;44475;53.206;-6.106;2023-04-01T00:05:56;25.52;;;3.42;;
58697;SDS011;44475;53.206;-6.106;2023-04-01T00:08:23;23.58;;;3.05;;
58697;SDS011;44475;53.206;-6.106;2023-04-01T00:10:51;20.40;;;3.08;;
58697;SDS011;44475;53.206;-6.106;2023-04-01T00:13:18;25.98;;;2.67;;
58697;SDS011;44475;53.206;-6.106;2023-04-01T00:15:45;26.13;;;2.90;;
58697;SDS011;44475;53.206;-6.106;2023-04-01T00:18:15;28.08;;;3.45;;
58697;SDS011;44475;53.206;-6.106;2023-04-01T00:20:48;18.58;;;3.13;;
58697;SDS011;44475;53.206;-6.106;2023-04-01T00:23:16;14.77;;;2.40;;
58697;SDS011;44475;53.206;-6.106;2023-04-01T00:25:43;12.38;;;2.33;;
58697;SDS011;44475;53.206;-6.106;2023-04-01T00:28:12;11.13;;;2.10;;
58697;SDS011;44475;53.206;-6.106;2023-04-01T00:30:40;15.02;;;2.70;;
58697;SDS011;44475;53.206;-6.106;2023-04-01T00:33:06;15.82;;;2.60;;
58697;SDS011;44475;53.206;-6.106;2023-04-01T00:35:33;14.57;;;2.70;;
58697;SDS011;44475;53.206;-6.106;2023-04-01T00:37:59;18.08;;;2.60;;
58697;SDS011;44475;53.206;-6.106;2023-04-01T00:43:01;15.48;;;2.60;;
58697;SDS011;44475;53.206;-6.106;2023-04-01T00:45:32;14.32;;;2.28;;
58697;SDS011;44475;53.206;-6.106;2023-04-01T00:48:04;13.10;;;2.35;;
58697;SDS011;44475;53.206;-6.106;2023-04-01T00:50:59;13.57;;;2.08;;
58697;SDS011;44475;53.206;-6.106;2023-04-01T00:53:31;10.75;;;1.98;;
58697;SDS011;44475;53.206;-6.106;2023-04-01T00:56:05;9.05;;;1.80;;
58697;SDS011;44475;53.206;-6.106;2023-04-01T00:58:40;8.73;;;2.08;;
58697;SDS011;44475;53.206;-6.106;2023-04-01T01:01:10;13.00;;;2.00;;
58697;SDS011;44475;53.206;-6.106;2023-04-01T01:03:37;10.55;;;2.00;;
58697;SDS011;44475;53.206;-6.106;2023-04-01T01:06:39;9.88;;;2.30;;
58697;SDS011;44475;53.206;-6.106;2023-04-01T01:11:43;12.05;;;2.13;;
58697;SDS011;44475;53.206;-6.106;2023-04-01T01:16:46;8.43;;;2.30;;
58697;SDS011;44475;53.206;-6.106;2023-04-01T01:27:58;14.38;;;2.00;;
58697;SDS011;44475;53.206;-6.106;2023-04-01T01:30:35;4.30;;;1.80;;
58697;SDS011;44475;53.206;-6.106;2023-04-01T01:33:08;9.02;;;1.85;;
58697;SDS011;44475;53.206;-6.106;2023-04-01T01:38:18;7.38;;;1.48;;
58697;SDS011;44475;53.206;-6.106;2023-04-01T01:40:58;4.93;;;1.45;;
58697;SDS011;44475;53.206;-6.106;2023-04-01T01:43:29;6.72;;;1.70;;
58697;SDS011;44475;53.206;-6.106;2023-04-01T01:46:00;5.30;;;1.73;;
58697;SDS011;44475;53.206;-6.106;2023-04-01T01:48:31;5.22;;;1.73;;
58697;SDS011;44475;53.206;-6.106;2023-04-01T01:50:59;4.15;;;1.50;;
58697;SDS011;44475;53.206;-6.106;2023-04-01T01:53:25;8.07;;;1.83;;
58697;SDS011;44475;53.206;-6.106;2023-04-01T01:55:52;9.60;;;2.30;;
58697;SDS011;44475;53.206;-6.106;2023-04-01T02:00:55;5.10;;;1.27;;
58697;SDS011;44475;53.206;-6.106;2023-04-01T02:03:29;6.78;;;1.60;;
58697;SDS011;44475;53.206;-6.106;2023-04-01T02:05:59;4.53;;;1.30;;
58697;SDS011;44475;53.206;-6.106;2023-04-01T02:08:30;3.97;;;1.30;;
58697;SDS011;44475;53.206;-6.106;2023-04-01T02:11:07;2.55;;;1.50;;
58697;SDS011;44475;53.206;-6.106;2023-04-01T02:13:44;4.57;;;1.85;;
58697;SDS011;44475;53.206;-6.106;2023-04-01T02:16:19;4.20;;;1.35;;
58697;SDS011;44475;53.206;-6.106;2023-04-01T02:18:51;4.07;;;1.40;;
58697;SDS011;44475;53.206;-6.106;2023-04-01T02:21:21;4.82;;;1.50;;
58697;SDS011;44475;53.206;-6.106;2023-04-01T02:23:52;3.22;;;1.40;;
58697;SDS011;44475;53.206;-6.106;2023-04-01T02:26:20;3.20;;;1.52;;
58697;SDS011;44475;53.206;-6.106;2023-04-01T02:28:48;2.67;;;1.30;;
58697;SDS011;44475;53.206;-6.106;2023-04-01T02:31:16;7.13;;;1.60;;
58697;SDS011;44475;53.206;-6.106;2023-04-01T02:33:43;4.45;;;1.23;;
58697;SDS011;44475;53.206;-6.106;2023-04-01T02:36:15;3.60;;;1.48;;
58697;SDS011;44475;53.206;-6.106;2023-04-01T02:38:43;6.47;;;1.40;;
58697;SDS011;44475;53.206;-6.106;2023-04-01T02:41:12;2.72;;;1.30;;
58697;SDS011;44475;53.206;-6.106;2023-04-01T02:43:38;2.83;;;1.30;;
58697;SDS011;44475;53.206;-6.106;2023-04-01T02:46:04;3.92;;;1.33;;
58697;SDS011;44475;53.206;-6.106;2023-04-01T02:48:31;2.05;;;1.15;;
58697;SDS011;44475;53.206;-6.106;2023-04-01T02:50:57;3.78;;;1.40;;
58697;SDS011;44475;53.206;-6.106;2023-04-01T02:53:23;2.50;;;1.30;;
58697;SDS011;44475;53.206;-6.106;2023-04-01T02:55:50;2.50;;;1.20;;
58697;SDS011;44475;53.206;-6.106;2023-04-01T02:58:17;1.48;;;1.20;;
58697;SDS011;44475;53.206;-6.106;2023-04-01T03:00:44;2.30;;;1.25;;
58697;SDS011;44475;53.206;-6.106;2023-04-01T03:03:10;2.75;;;1.35;;
58697;SDS011;44475;53.206;-6.106;2023-04-01T03:05:38;2.95;;;1.30;;
58697;SDS011;44475;53.206;-6.106;2023-04-01T03:08:05;2.72;;;1.17;;
58697;SDS011;44475;53.206;-6.106;2023-04-01T03:10:31;2.35;;;1.10;;
58697;SDS011;44475;53.206;-6.106;2023-04-01T03:12:58;2.28;;;1.30;;
58697;SDS011;44475;53.206;-6.106;2023-04-01T03:15:24;2.05;;;1.38;;
58697;SDS011;44475;53.206;-6.106;2023-04-01T03:17:50;2.10;;;1.10;;
58697;SDS011;44475;53.206;-6.106;2023-04-01T03:20:17;2.70;;;1.20;;
58697;SDS011;44475;53.206;-6.106;2023-04-01T03:22:43;2.35;;;1.20;;
58697;SDS011;44475;53.206;-6.106;2023-04-01T03:25:09;3.45;;;1.20;;
58697;SDS011;44475;53.206;-6.106;2023-04-01T03:27:36;3.05;;;1.13;;
58697;SDS011;44475;53.206;-6.106;2023-04-01T03:30:04;1.30;;;1.13;;
58697;SDS011;44475;53.206;-6.106;2023-04-01T03:32:36;1.20;;;1.10;;
58697;SDS011;44475;53.206;-6.106;2023-04-01T03:35:02;4.50;;;1.38;;
58697;SDS011;44475;53.206;-6.106;2023-04-01T03:37:30;2.60;;;1.33;;
58697;SDS011;44475;53.206;-6.106;2023-04-01T03:39:57;1.60;;;1.10;;
58697;SDS011;44475;53.206;-6.106;2023-04-01T03:42:23;1.90;;;1.10;;
58697;SDS011;44475;53.206;-6.106;2023-04-01T03:44:50;2.05;;;1.05;;
58697;SDS011;44475;53.206;-6.106;2023-04-01T03:47:16;1.67;;;1.17;;
58697;SDS011;44475;53.206;-6.106;2023-04-01T03:49:43;2.10;;;1.10;;
58697;SDS011;44475;53.206;-6.106;2023-04-01T03:52:10;2.75;;;1.17;;
58697;SDS011;44475;53.206;-6.106;2023-04-01T03:54:37;1.83;;;1.00;;
58697;SDS011;44475;53.206;-6.106;2023-04-01T03:57:03;1.00;;;0.98;;
58697;SDS011;44475;53.206;-6.106;2023-04-01T03:59:30;1.10;;;1.00;;
58697;SDS011;44475;53.206;-6.106;2023-04-01T04:01:57;1.15;;;0.93;;
58697;SDS011;44475;53.206;-6.106;2023-04-01T04:04:23;1.17;;;0.95;;
58697;SDS011;44475;53.206;-6.106;2023-04-01T04:06:49;1.65;;;1.25;;
58697;SDS011;44475;53.206;-6.106;2023-04-01T04:09:17;1.13;;;0.82;;
58697;SDS011;44475;53.206;-6.106;2023-04-01T04:11:43;1.20;;;1.10;;
58697;SDS011;44475;53.206;-6.106;2023-04-01T04:14:09;1.88;;;1.20;;
58697;SDS011;44475;53.206;-6.106;2023-04-01T04:16:36;1.27;;;1.05;;
58697;SDS011;44475;53.206;-6.106;2023-04-01T04:19:03;1.35;;;1.08;;
58697;SDS011;44475;53.206;-6.106;2023-04-01T04:21:30;1.30;;;1.20;;
58697;SDS011;44475;53.206;-6.106;2023-04-01T04:23:56;1.20;;;1.10;;
58697;SDS011;44475;53.206;-6.106;2023-04-01T04:26:24;2.25;;;1.40;;
58697;SDS011;44475;53.206;-6.106;2023-04-01T04:28:58;1.92;;;1.10;;
58697;SDS011;44475;53.206;-6.106;2023-04-01T04:31:24;1.38;;;1.10;;
58697;SDS011;44475;53.206;-6.106;2023-04-01T04:33:53;1.00;;;1.00;;
58697;SDS011;44475;53.206;-6.106;2023-04-01T04:36:21;1.45;;;1.10;;
58697;SDS011;44475;53.206;-6.106;2023-04-01T04:38:49;1.20;;;1.10;;
58697;SDS011;44475;53.206;-6.106;2023-04-01T04:41:16;0.90;;;0.90;;
58697;SDS011;44475;53.206;-6.106;2023-04-01T04:43:51;1.15;;;1.00;;
58697;SDS011;44475;53.206;-6.106;2023-04-01T04:46:21;1.38;;;1.00;;
58697;SDS011;44475;53.206;-6.106;2023-04-01T04:48:51;1.20;;;1.10;;
58697;SDS011;44475;53.206;-6.106;2023-04-01T04:51:18;0.98;;;0.98;;
58697;SDS011;44475;53.206;-6.106;2023-04-01T04:53:45;1.00;;;1.00;;
58697;SDS011;44475;53.206;-6.106;2023-04-01T04:56:12;0.90;;;0.80;;
58697;SDS011;44475;53.206;-6.106;2023-04-01T04:58:48;1.00;;;0.90;;
58697;SDS011;44475;53.206;-6.106;2023-04-01T05:01:19;1.20;;;0.90;;
58697;SDS011;44475;53.206;-6.106;2023-04-01T05:03:45;1.75;;;0.90;;
58697;SDS011;44475;53.206;-6.106;2023-04-01T05:06:12;1.00;;;0.95;;
58697;SDS011;44475;53.206;-6.106;2023-04-01T05:08:41;2.63;;;1.20;;
58697;SDS011;44475;53.206;-6.106;2023-04-01T05:11:12;1.05;;;0.90;;
58697;SDS011;44475;53.206;-6.106;2023-04-01T05:13:42;0.98;;;0.90;;
58697;SDS011;44475;53.206;-6.106;2023-04-01T05:16:13;1.45;;;1.13;;
58697;SDS011;44475;53.206;-6.106;2023-04-01T05:18:42;0.98;;;0.98;;
58697;SDS011;44475;53.206;-6.106;2023-04-01T05:21:09;1.33;;;1.08;;
58697;SDS011;44475;53.206;-6.106;2023-04-01T05:23:38;1.20;;;1.00;;
58697;SDS011;44475;53.206;-6.106;2023-04-01T05:26:05;0.80;;;0.80;;
58697;SDS011;44475;53.206;-6.106;2023-04-01T05:28:33;1.00;;;0.90;;
58697;SDS011;44475;53.206;-6.106;2023-04-01T05:30:59;0.90;;;0.90;;
58697;SDS011;44475;53.206;-6.106;2023-04-01T05:33:32;0.90;;;0.90;;
58697;SDS011;44475;53.206;-6.106;2023-04-01T05:36:09;1.17;;;0.90;;
58697;SDS011;44475;53.206;-6.106;2023-04-01T05:38:37;1.25;;;1.08;;
58697;SDS011;44475;53.206;-6.106;2023-04-01T05:41:06;0.80;;;0.77;;
58697;SDS011;44475;53.206;-6.106;2023-04-01T05:43:36;0.80;;;0.80;;
58697;SDS011;44475;53.206;-6.106;2023-04-01T05:46:23;0.93;;;0.90;;
58697;SDS011;44475;53.206;-6.106;2023-04-01T05:48:56;0.95;;;0.70;;
58697;SDS011;44475;53.206;-6.106;2023-04-01T05:51:23;1.15;;;0.90;;
58697;SDS011;44475;53.206;-6.106;2023-04-01T05:53:50;0.80;;;0.80;;
58697;SDS011;44475;53.206;-6.106;2023-04-01T05:56:17;0.80;;;0.80;;
58697;SDS011;44475;53.206;-6.106;2023-04-01T05:58:50;0.82;;;0.82;;
58697;SDS011;44475;53.206;-6.106;2023-04-01T06:01:18;0.90;;;0.90;;
58697;SDS011;44475;53.206;-6.106;2023-04-01T06:03:44;0.70;;;0.70;;
58697;SDS011;44475;53.206;-6.106;2023-04-01T06:06:15;0.98;;;0.88;;
58697;SDS011;44475;53.206;-6.106;2023-04-01T06:09:16;2.10;;;0.95;;
58697;SDS011;44475;53.206;-6.106;2023-04-01T06:21:00;0.93;;;0.85;;
58697;SDS011;44475;53.206;-6.106;2023-04-01T06:26:34;0.80;;;0.80;;
58697;SDS011;44475;53.206;-6.106;2023-04-01T06:58:22;1.38;;;0.90;;
58697;SDS011;44475;53.206;-6.106;2023-04-01T07:01:00;0.80;;;0.80;;
58697;SDS011;44475;53.206;-6.106;2023-04-01T07:03:51;0.80;;;0.80;;
58697;SDS011;44475;53.206;-6.106;2023-04-01T07:06:27;1.52;;;0.82;;
58697;SDS011;44475;53.206;-6.106;2023-04-01T07:09:04;0.70;;;0.70;;
58697;SDS011;44475;53.206;-6.106;2023-04-01T07:12:00;0.95;;;0.90;;
58697;SDS011;44475;53.206;-6.106;2023-04-01T07:14:54;0.80;;;0.80;;
58697;SDS011;44475;53.206;-6.106;2023-04-01T07:17:23;0.80;;;0.80;;
58697;SDS011;44475;53.206;-6.106;2023-04-01T07:20:38;0.82;;;0.82;;
58697;SDS011;44475;53.206;-6.106;2023-04-01T07:22:52;0.80;;;0.80;;
58697;SDS011;44475;53.206;-6.106;2023-04-01T07:25:36;1.00;;;0.80;;
58697;SDS011;44475;53.206;-6.106;2023-04-01T07:28:36;0.70;;;0.70;;
58697;SDS011;44475;53.206;-6.106;2023-04-01T07:31:19;0.93;;;0.93;;
58697;SDS011;44475;53.206;-6.106;2023-04-01T07:36:45;1.83;;;1.00;;
58697;SDS011;44475;53.206;-6.106;2023-04-01T07:39:39;1.00;;;0.80;;
58697;SDS011;44475;53.206;-6.106;2023-04-01T07:50:47;1.00;;;0.90;;
58697;SDS011;44475;53.206;-6.106;2023-04-01T08:01:55;1.23;;;0.82;;
58697;SDS011;44475;53.206;-6.106;2023-04-01T08:07:20;1.80;;;0.85;;
58697;SDS011;44475;53.206;-6.106;2023-04-01T08:10:16;1.13;;;1.02;;
58697;SDS011;44475;53.206;-6.106;2023-04-01T08:13:34;1.05;;;1.00;;
58697;SDS011;44475;53.206;-6.106;2023-04-01T08:16:46;1.00;;;1.00;;
58697;SDS011;44475;53.206;-6.106;2023-04-01T08:19:43;1.00;;;0.95;;
58697;SDS011;44475;53.206;-6.106;2023-04-01T08:22:26;1.48;;;1.10;;
58697;SDS011;44475;53.206;-6.106;2023-04-01T08:25:03;0.85;;;0.80;;
58697;SDS011;44475;53.206;-6.106;2023-04-01T08:28:08;1.00;;;0.98;;
58697;SDS011;44475;53.206;-6.106;2023-04-01T08:35:56;9.85;;;1.40;;
58697;SDS011;44475;53.206;-6.106;2023-04-01T08:38:29;4.93;;;1.20;;
58697;SDS011;44475;53.206;-6.106;2023-04-01T09:24:41;2.38;;;1.05;;
58697;SDS011;44475;53.206;-6.106;2023-04-01T09:27:39;3.40;;;1.27;;
58697;SDS011;44475;53.206;-6.106;2023-04-01T09:44:36;2.47;;;1.23;;
58697;SDS011;44475;53.206;-6.106;2023-04-01T09:47:59;2.85;;;1.10;;
58697;SDS011;44475;53.206;-6.106;2023-04-01T09:50:34;3.13;;;1.30;;
58697;SDS011;44475;53.206;-6.106;2023-04-01T09:53:20;6.13;;;1.42;;
58697;SDS011;44475;53.206;-6.106;2023-04-01T09:59:12;3.10;;;1.10;;
58697;SDS011;44475;53.206;-6.106;2023-04-01T10:21:36;10.20;;;1.50;;
58697;SDS011;44475;53.206;-6.106;2023-04-01T11:26:29;24.38;;;2.90;;
58697;SDS011;44475;53.206;-6.106;2023-04-01T11:29:04;25.67;;;2.90;;
58697;SDS011;44475;53.206;-6.106;2023-04-01T12:13:55;23.38;;;3.85;;
58697;SDS011;44475;53.206;-6.106;2023-04-01T12:16:40;22.10;;;2.95;;
58697;SDS011;44475;53.206;-6.106;2023-04-01T12:28:01;22.80;;;3.05;;
58697;SDS011;44475;53.206;-6.106;2023-04-01T12:30:56;22.52;;;3.15;;
58697;SDS011;44475;53.206;-6.106;2023-04-01T12:33:40;27.40;;;3.20;;
58697;SDS011;44475;53.206;-6.106;2023-04-01T12:50:33;59.63;;;4.88;;
58697;SDS011;44475;53.206;-6.106;2023-04-01T12:56:01;346.70;;;52.00;;
58697;SDS011;44475;53.206;-6.106;2023-04-01T13:07:42;496.35;;;110.00;;
58697;SDS011;44475;53.206;-6.106;2023-04-01T13:13:28;486.60;;;112.07;;
58697;SDS011;44475;53.206;-6.106;2023-04-01T13:16:26;446.58;;;111.68;;
58697;SDS011;44475;53.206;-6.106;2023-04-01T13:19:05;455.08;;;111.85;;
58697;SDS011;44475;53.206;-6.106;2023-04-01T13:24:51;459.85;;;113.88;;
58697;SDS011;44475;53.206;-6.106;2023-04-01T13:27:31;442.92;;;110.00;;
58697;SDS011;44475;53.206;-6.106;2023-04-01T13:32:50;454.25;;;120.03;;
58697;SDS011;44475;53.206;-6.106;2023-04-01T13:35:52;427.95;;;112.75;;
58697;SDS011;44475;53.206;-6.106;2023-04-01T13:43:39;405.73;;;104.43;;
58697;SDS011;44475;53.206;-6.106;2023-04-01T13:46:20;419.77;;;108.50;;
58697;SDS011;44475;53.206;-6.106;2023-04-01T13:48:57;387.73;;;106.07;;
58697;SDS011;44475;53.206;-6.106;2023-04-01T13:57:38;382.42;;;97.15;;
58697;SDS011;44475;53.206;-6.106;2023-04-01T14:11:13;452.83;;;118.32;;
58697;SDS011;44475;53.206;-6.106;2023-04-01T14:35:38;440.83;;;122.38;;
58697;SDS011;44475;53.206;-6.106;2023-04-01T14:40:56;414.42;;;116.22;;
58697;SDS011;44475;53.206;-6.106;2023-04-01T14:46:27;408.33;;;115.22;;
58697;SDS011;44475;53.206;-6.106;2023-04-01T14:49:02;450.48;;;124.63;;
58697;SDS011;44475;53.206;-6.106;2023-04-01T14:51:40;449.40;;;125.55;;
58697;SDS011;44475;53.206;-6.106;2023-04-01T14:54:17;386.15;;;104.00;;
58697;SDS011;44475;53.206;-6.106;2023-04-01T14:57:08;334.65;;;94.07;;
58697;SDS011;44475;53.206;-6.106;2023-04-01T14:59:39;321.77;;;90.20;;
58697;SDS011;44475;53.206;-6.106;2023-04-01T15:18:32;316.58;;;82.88;;
58697;SDS011;44475;53.206;-6.106;2023-04-01T15:24:15;304.80;;;79.55;;
58697;SDS011;44475;53.206;-6.106;2023-04-01T15:27:12;312.05;;;79.78;;
58697;SDS011;44475;53.206;-6.106;2023-04-01T15:30:33;306.52;;;77.57;;
58697;SDS011;44475;53.206;-6.106;2023-04-01T15:32:51;291.60;;;76.35;;
58697;SDS011;44475;53.206;-6.106;2023-04-01T15:35:30;273.65;;;74.13;;
58697;SDS011;44475;53.206;-6.106;2023-04-01T15:38:11;295.05;;;74.40;;
58697;SDS011;44475;53.206;-6.106;2023-04-01T15:43:49;273.50;;;69.72;;
58697;SDS011;44475;53.206;-6.106;2023-04-01T15:49:28;284.60;;;71.72;;
58697;SDS011;44475;53.206;-6.106;2023-04-01T16:06:08;256.55;;;68.10;;
58697;SDS011;44475;53.206;-6.106;2023-04-01T16:19:41;229.23;;;61.63;;
58697;SDS011;44475;53.206;-6.106;2023-04-01T16:25:04;225.50;;;60.85;;
58697;SDS011;44475;53.206;-6.106;2023-04-01T16:28:09;211.65;;;59.38;;
58697;SDS011;44475;53.206;-6.106;2023-04-01T16:33:57;225.88;;;62.20;;
58697;SDS011;44475;53.206;-6.106;2023-04-01T16:36:36;217.55;;;59.08;;
58697;SDS011;44475;53.206;-6.106;2023-04-01T16:39:26;217.05;;;60.03;;
58697;SDS011;44475;53.206;-6.106;2023-04-01T16:44:41;213.30;;;57.35;;
58697;SDS011;44475;53.206;-6.106;2023-04-01T16:47:15;213.77;;;58.20;;
58697;SDS011;44475;53.206;-6.106;2023-04-01T16:49:54;200.18;;;57.90;;
58697;SDS011;44475;53.206;-6.106;2023-04-01T16:58:35;198.77;;;55.22;;
58697;SDS011;44475;53.206;-6.106;2023-04-01T17:01:09;189.10;;;55.22;;
58697;SDS011;44475;53.206;-6.106;2023-04-01T17:03:45;190.90;;;53.72;;
58697;SDS011;44475;53.206;-6.106;2023-04-01T17:11:49;179.15;;;53.22;;
58697;SDS011;44475;53.206;-6.106;2023-04-01T17:14:24;185.45;;;55.28;;
58697;SDS011;44475;53.206;-6.106;2023-04-01T17:19:49;182.50;;;53.28;;
58697;SDS011;44475;53.206;-6.106;2023-04-01T17:22:47;179.45;;;52.35;;
58697;SDS011;44475;53.206;-6.106;2023-04-01T17:34:04;160.68;;;49.53;;
58697;SDS011;44475;53.206;-6.106;2023-04-01T17:44:58;166.52;;;50.90;;
58697;SDS011;44475;53.206;-6.106;2023-04-01T17:47:43;156.02;;;49.22;;
58697;SDS011;44475;53.206;-6.106;2023-04-01T17:50:48;146.20;;;48.40;;
58697;SDS011;44475;53.206;-6.106;2023-04-01T18:01:54;146.07;;;48.22;;
58697;SDS011;44475;53.206;-6.106;2023-04-01T18:07:06;150.70;;;46.92;;
58697;SDS011;44475;53.206;-6.106;2023-04-01T18:12:19;145.27;;;47.10;;
58697;SDS011;44475;53.206;-6.106;2023-04-01T18:15:49;131.65;;;41.45;;
58697;SDS011;44475;53.206;-6.106;2023-04-01T18:24:16;128.23;;;40.97;;
58697;SDS011;44475;53.206;-6.106;2023-04-01T18:26:59;141.68;;;44.13;;
58697;SDS011;44475;53.206;-6.106;2023-04-01T18:29:40;139.85;;;43.88;;
58697;SDS011;44475;53.206;-6.106;2023-04-01T18:40:36;130.25;;;45.05;;
58697;SDS011;44475;53.206;-6.106;2023-04-01T18:43:42;139.48;;;44.88;;
58697;SDS011;44475;53.206;-6.106;2023-04-01T18:46:39;140.07;;;45.90;;
58697;SDS011;44475;53.206;-6.106;2023-04-01T18:52:33;133.95;;;47.45;;
58697;SDS011;44475;53.206;-6.106;2023-04-01T19:00:36;139.68;;;47.70;;
58697;SDS011;44475;53.206;-6.106;2023-04-01T19:03:12;147.18;;;49.30;;
58697;SDS011;44475;53.206;-6.106;2023-04-01T19:06:20;139.13;;;47.95;;
58697;SDS011;44475;53.206;-6.106;2023-04-01T19:20:34;144.70;;;50.35;;
58697;SDS011;44475;53.206;-6.106;2023-04-01T19:25:55;136.15;;;50.15;;
58697;SDS011;44475;53.206;-6.106;2023-04-01T19:33:36;141.95;;;52.20;;
58697;SDS011;44475;53.206;-6.106;2023-04-01T19:36:12;143.52;;;50.92;;
58697;SDS011;44475;53.206;-6.106;2023-04-01T19:41:45;144.98;;;50.60;;
58697;SDS011;44475;53.206;-6.106;2023-04-01T19:47:05;147.38;;;51.72;;
58697;SDS011;44475;53.206;-6.106;2023-04-01T19:52:52;124.00;;;49.47;;
58697;SDS011;44475;53.206;-6.106;2023-04-01T19:55:37;138.52;;;48.28;;
58697;SDS011;44475;53.206;-6.106;2023-04-01T19:58:26;142.68;;;48.80;;
58697;SDS011;44475;53.206;-6.106;2023-04-01T20:00:57;129.63;;;48.33;;
58697;SDS011;44475;53.206;-6.106;2023-04-01T20:06:21;130.10;;;48.17;;
58697;SDS011;44475;53.206;-6.106;2023-04-01T20:11:51;130.40;;;47.50;;
58697;SDS011;44475;53.206;-6.106;2023-04-01T20:14:39;130.55;;;47.55;;
58697;SDS011;44475;53.206;-6.106;2023-04-01T20:17:14;121.03;;;47.03;;
58697;SDS011;44475;53.206;-6.106;2023-04-01T20:20:15;132.45;;;48.45;;
58697;SDS011;44475;53.206;-6.106;2023-04-01T20:25:30;120.40;;;47.08;;
58697;SDS011;44475;53.206;-6.106;2023-04-01T20:47:18;118.80;;;47.58;;
58697;SDS011;44475;53.206;-6.106;2023-04-01T20:52:33;101.30;;;43.38;;
58697;SDS011;44475;53.206;-6.106;2023-04-01T20:58:01;86.75;;;35.70;;
58697;SDS011;44475;53.206;-6.106;2023-04-01T21:06:10;75.40;;;32.85;;
58697;SDS011;44475;53.206;-6.106;2023-04-01T21:08:53;77.32;;;32.03;;
58697;SDS011;44475;53.206;-6.106;2023-04-01T21:22:55;57.58;;;26.38;;
58697;SDS011;44475;53.206;-6.106;2023-04-01T21:25:41;62.58;;;26.00;;
58697;SDS011;44475;53.206;-6.106;2023-04-01T21:38:49;53.85;;;23.23;;
58697;SDS011;44475;53.206;-6.106;2023-04-01T22:06:55;42.63;;;18.40;;
58697;SDS011;44475;53.206;-6.106;2023-04-01T22:12:25;43.38;;;17.77;;
58697;SDS011;44475;53.206;-6.106;2023-04-01T22:20:33;35.08;;;15.38;;
58697;SDS011;44475;53.206;-6.106;2023-04-01T22:31:53;33.13;;;13.98;;
58697;SDS011;44475;53.206;-6.106;2023-04-01T22:37:22;30.55;;;13.40;;
58697;SDS011;44475;53.206;-6.106;2023-04-01T22:42:33;31.88;;;12.82;;
58697;SDS011;44475;53.206;-6.106;2023-04-01T22:50:23;28.38;;;12.68;;
58697;SDS011;44475;53.206;-6.106;2023-04-01T22:53:08;29.70;;;12.32;;
58697;SDS011;44475;53.206;-6.106;2023-04-01T22:55:49;28.15;;;11.82;;
58697;SDS011;44475;53.206;-6.106;2023-04-01T22:58:21;24.60;;;10.95;;
58697;SDS011;44475;53.206;-6.106;2023-04-01T23:00:56;27.85;;;11.15;;
58697;SDS011;44475;53.206;-6.106;2023-04-01T23:03:30;26.20;;;11.40;;
58697;SDS011;44475;53.206;-6.106;2023-04-01T23:05:59;27.45;;;10.13;;
58697;SDS011;44475;53.206;-6.106;2023-04-01T23:08:47;26.20;;;9.93;;
58697;SDS011;44475;53.206;-6.106;2023-04-01T23:11:15;21.40;;;9.27;;
58697;SDS011;44475;53.206;-6.106;2023-04-01T23:16:38;21.88;;;9.30;;
58697;SDS011;44475;53.206;-6.106;2023-04-01T23:19:15;20.35;;;8.70;;
58697;SDS011;44475;53.206;-6.106;2023-04-01T23:25:44;18.38;;;8.85;;
58697;SDS011;44475;53.206;-6.106;2023-04-01T23:28:18;17.95;;;8.60;;
58697;SDS011;44475;53.206;-6.106;2023-04-01T23:30:49;16.33;;;8.13;;
58697;SDS011;44475;53.206;-6.106;2023-04-01T23:35:52;15.90;;;7.72;;
58697;SDS011;44475;53.206;-6.106;2023-04-01T23:38:30;19.73;;;8.07;;
58697;SDS011;44475;53.206;-6.106;2023-04-01T23:41:02;18.67;;;7.57;;
58697;SDS011;44475;53.206;-6.106;2023-04-01T23:43:35;15.75;;;7.30;;
58697;SDS011;44475;53.206;-6.106;2023-04-01T23:46:05;17.63;;;7.28;;
58697;SDS011;44475;53.206;-6.106;2023-04-01T23:48:34;15.00;;;6.90;;
58697;SDS011;44475;53.206;-6.106;2023-04-01T23:51:03;14.63;;;7.10;;
58697;SDS011;44475;53.206;-6.106;2023-04-01T23:53:38;14.55;;;6.57;;
58697;SDS011;44475;53.206;-6.106;2023-04-01T23:56:09;13.13;;;6.75;;
